Time;durP1;ratioP1;P1;durP2;ratioP2;P2;SDS_P1;SDS_P2;PMS_P1;PMS_P2;Temp;Humidity;BMP_temperature;BMP_pressure;BME280_temperature;BME280_humidity;BME280_pressure;Samples;Min_cycle;Max_cycle;Signal;HPM_P1;HPM_P2
2024/04/13 00:00:28;;;;;;;;;;;;;;;;;;5550490;25;19933;-74
2024/04/13 00:02:54;;;;;;;;;;;;;;;;;;5549963;25;19935;-75
2024/04/13 00:05:20;;;;;;;;;;;;;;;;;;5550392;25;19934;-74
2024/04/13 00:07:46;;;;;;;;;;;;;;;;;;5583772;25;19939;-74
2024/04/13 00:10:12;;;;;;;;;;;;;;;;;;5550189;25;19994;-76
2024/04/13 00:12:38;;;;;;;;;;;;;;;;;;5583483;25;19927;-75
2024/04/13 00:15:04;;;;;;;;;;;;;;;;;;5550487;25;19927;-75
2024/04/13 00:17:31;;;;;;;;;;;;;;;;;;5585490;25;19955;-75
2024/04/13 00:19:57;;;;;;;;;;;;;;;;;;5588372;25;20319;-75
2024/04/13 00:22:23;;;;;;;;;;;;;;;;;;5587065;25;19930;-74
2024/04/13 00:24:49;;;;;;;;;;;;;;;;;;5585068;25;19933;-74
2024/04/13 00:29:23;;;;;;;;;;;;;;;;;;5622532;25;19933;-73
2024/04/13 00:31:49;;;;;;;;;;;;;;;;;;5588686;25;19926;-73
2024/04/13 00:34:15;;;;;;;;;;;;;;;;;;5623302;25;19926;-75
2024/04/13 00:36:41;;;;;;;;;;;;;;;;;;5590660;25;19926;-74
2024/04/13 00:39:08;;;;;;;;;;;;;;;;;;5623898;25;20370;-74
2024/04/13 00:41:34;;;;;;;;;;;;;;;;;;5625132;25;20000;-75
2024/04/13 00:44:00;;;;;;;;;;;;;;;;;;5624924;25;19938;-75
2024/04/13 00:46:26;;;;;;;;;;;;;;;;;;5589643;25;19952;-74
2024/04/13 00:48:52;;;;;;;;;;;;;;;;;;5623211;25;19942;-74
2024/04/13 00:51:18;;;;;;;;;;;;;;;;;;5623416;25;19932;-74
2024/04/13 00:53:44;;;;;;;;;;;;;;;;;;5623292;25;19926;-75
2024/04/13 00:56:10;;;;;;;;;;;;;;;;;;5622384;25;19926;-74
2024/04/13 00:58:36;;;;;;;;;;;;;;;;;;5621640;25;19926;-74
2024/04/13 01:01:02;;;;;;;;;;;;;;;;;;5622072;25;20252;-73
2024/04/13 01:03:28;;;;;;;;;;;;;;;;;;5622144;25;19927;-75
2024/04/13 01:05:55;;;;;;;;;;;;;;;;;;5621467;25;19993;-75
2024/04/13 01:08:21;;;;;;;;;;;;;;;;;;5621912;25;19926;-75
2024/04/13 01:10:47;;;;;;;;;;;;;;;;;;5588014;25;20331;-75
2024/04/13 01:13:13;;;;;;;;;;;;;;;;;;5621593;25;20375;-76
2024/04/13 01:15:39;;;;;;;;;;;;;;;;;;5622413;25;19950;-75
2024/04/13 01:18:05;;;;;;;;;;;;;;;;;;5622755;25;19952;-75
2024/04/13 01:20:33;;;;;;;;;;;;;;;;;;5621634;25;19934;-75
2024/04/13 01:23:11;;;;;;;;;;;;;;;;;;5584119;25;19927;-75
2024/04/13 01:25:37;;;;;;;;;;;;;;;;;;5584422;25;19942;-74
2024/04/13 01:28:04;;;;;;;;;;;;;;;;;;5583798;25;19927;-74
2024/04/13 01:30:29;;;;;;;;;;;;;;;;;;5584239;25;19994;-73
2024/04/13 01:32:55;;;;;;;;;;;;;;;;;;5584281;25;20267;-73
2024/04/13 01:35:21;;;;;;;;;;;;;;;;;;5583793;25;19938;-74
2024/04/13 01:37:47;;;;;;;;;;;;;;;;;;5584395;25;19937;-74
2024/04/13 01:40:13;;;;;;;;;;;;;;;;;;5584185;25;19926;-75
2024/04/13 01:42:41;;;;;;;;;;;;;;;;;;5583758;25;19927;-74
2024/04/13 01:45:07;;;;;;;;;;;;;;;;;;5584159;25;20097;-74
2024/04/13 01:47:33;;;;;;;;;;;;;;;;;;5583608;25;19934;-74
2024/04/13 01:49:59;;;;;;;;;;;;;;;;;;5584079;25;19998;-75
2024/04/13 01:52:24;;;;;;;;;;;;;;;;;;5583893;25;19926;-73
2024/04/13 01:54:50;;;;;;;;;;;;;;;;;;5583657;25;19934;-74
2024/04/13 01:57:16;;;;;;;;;;;;;;;;;;5584011;25;19931;-74
2024/04/13 01:59:42;;;;;;;;;;;;;;;;;;5583691;25;19927;-73
2024/04/13 02:02:09;;;;;;;;;;;;;;;;;;5583269;25;19926;-73
2024/04/13 02:04:35;;;;;;;;;;;;;;;;;;5583671;25;19962;-74
2024/04/13 02:07:01;;;;;;;;;;;;;;;;;;5583762;25;19961;-74
2024/04/13 02:09:28;;;;;;;;;;;;;;;;;;5583302;25;19938;-73
2024/04/13 02:11:54;;;;;;;;;;;;;;;;;;5583555;25;19938;-74
2024/04/13 02:14:20;;;;;;;;;;;;;;;;;;5583607;25;19931;-74
2024/04/13 02:16:46;;;;;;;;;;;;;;;;;;5583130;25;20048;-74
2024/04/13 02:19:14;;;;;;;;;;;;;;;;;;5583827;25;19927;-74
2024/04/13 02:21:40;;;;;;;;;;;;;;;;;;5583264;25;19930;-74
2024/04/13 02:24:06;;;;;;;;;;;;;;;;;;5583325;25;19934;-74
2024/04/13 02:26:32;;;;;;;;;;;;;;;;;;5583840;25;19972;-73
2024/04/13 02:28:58;;;;;;;;;;;;;;;;;;5550443;25;19934;-73
2024/04/13 02:31:24;;;;;;;;;;;;;;;;;;5549927;25;19934;-73
2024/04/13 02:33:50;;;;;;;;;;;;;;;;;;5571906;25;19994;-73
2024/04/13 02:36:16;;;;;;;;;;;;;;;;;;5567393;25;20363;-74
2024/04/13 02:38:42;;;;;;;;;;;;;;;;;;5567077;25;20289;-74
2024/04/13 02:41:08;;;;;;;;;;;;;;;;;;5567320;25;19931;-73
2024/04/13 02:43:35;;;;;;;;;;;;;;;;;;5567343;25;19927;-74
2024/04/13 02:46:03;;;;;;;;;;;;;;;;;;5566888;25;19927;-73
2024/04/13 02:48:29;;;;;;;;;;;;;;;;;;5567380;25;19934;-73
2024/04/13 02:50:55;;;;;;;;;;;;;;;;;;5566795;25;19927;-74
2024/04/13 02:53:21;;;;;;;;;;;;;;;;;;5534145;25;19995;-73
2024/04/13 02:55:47;;;;;;;;;;;;;;;;;;5567152;25;19939;-73
2024/04/13 02:58:13;;;;;;;;;;;;;;;;;;5566850;25;19971;-73
2024/04/13 03:00:39;;;;;;;;;;;;;;;;;;5533846;25;19935;-73
2024/04/13 03:03:05;;;;;;;;;;;;;;;;;;5567105;25;20295;-72
2024/04/13 03:05:31;;;;;;;;;;;;;;;;;;5566598;25;19998;-73
2024/04/13 03:07:57;;;;;;;;;;;;;;;;;;5533858;25;19934;-73
2024/04/13 03:10:23;;;;;;;;;;;;;;;;;;5566877;25;20348;-73
2024/04/13 03:12:49;;;;;;;;;;;;;;;;;;5566381;25;19927;-73
2024/04/13 03:15:15;;;;;;;;;;;;;;;;;;5533658;25;19933;-73
2024/04/13 03:17:41;;;;;;;;;;;;;;;;;;5566830;25;19926;-73
2024/04/13 03:20:07;;;;;;;;;;;;;;;;;;5533142;25;19935;-73
2024/04/13 03:22:34;;;;;;;;;;;;;;;;;;5566204;25;20353;-73
2024/04/13 03:25:00;;;;;;;;;;;;;;;;;;5566401;25;19995;-73
2024/04/13 03:27:26;;;;;;;;;;;;;;;;;;5532876;25;20355;-73
2024/04/13 03:29:52;;;;;;;;;;;;;;;;;;5566595;25;20375;-73
2024/04/13 03:32:18;;;;;;;;;;;;;;;;;;5566309;25;19998;-73
2024/04/13 03:34:44;;;;;;;;;;;;;;;;;;5565914;25;19938;-73
2024/04/13 03:37:10;;;;;;;;;;;;;;;;;;5566316;25;19938;-73
2024/04/13 03:39:36;;;;;;;;;;;;;;;;;;5566056;25;19994;-73
2024/04/13 03:42:02;;;;;;;;;;;;;;;;;;5532516;25;19933;-73
2024/04/13 03:44:27;;;;;;;;;;;;;;;;;;5531662;25;20315;-73
2024/04/13 03:46:53;;;;;;;;;;;;;;;;;;5565722;25;19927;-73
2024/04/13 03:49:21;;;;;;;;;;;;;;;;;;5565491;25;19994;-73
2024/04/13 03:51:47;;;;;;;;;;;;;;;;;;5565873;25;20343;-73
2024/04/13 03:54:13;;;;;;;;;;;;;;;;;;5532437;25;19938;-73
2024/04/13 03:56:39;;;;;;;;;;;;;;;;;;5532721;25;19927;-73
2024/04/13 03:59:05;;;;;;;;;;;;;;;;;;5565770;25;19927;-73
2024/04/13 04:01:31;;;;;;;;;;;;;;;;;;5565229;25;20057;-73
2024/04/13 04:03:57;;;;;;;;;;;;;;;;;;5532730;25;20367;-73
2024/04/13 04:06:22;;;;;;;;;;;;;;;;;;5565730;25;20267;-73
2024/04/13 04:08:48;;;;;;;;;;;;;;;;;;5565355;25;20259;-73
2024/04/13 04:11:14;;;;;;;;;;;;;;;;;;5532400;25;19939;-73
2024/04/13 04:13:40;;;;;;;;;;;;;;;;;;5532542;25;19934;-73
2024/04/13 04:16:06;;;;;;;;;;;;;;;;;;5565241;25;19975;-74
2024/04/13 04:18:32;;;;;;;;;;;;;;;;;;5565620;25;19938;-73
2024/04/13 04:20:58;;;;;;;;;;;;;;;;;;5565458;25;19927;-73
2024/04/13 04:23:24;;;;;;;;;;;;;;;;;;5565580;25;19927;-73
2024/04/13 04:25:50;;;;;;;;;;;;;;;;;;5565867;25;20377;-73
2024/04/13 04:28:16;;;;;;;;;;;;;;;;;;5532772;25;20387;-73
2024/04/13 04:30:42;;;;;;;;;;;;;;;;;;5532197;25;20251;-73
2024/04/13 04:33:08;;;;;;;;;;;;;;;;;;5532718;25;20125;-74
2024/04/13 04:35:34;;;;;;;;;;;;;;;;;;5532524;25;19927;-73
2024/04/13 04:38:00;;;;;;;;;;;;;;;;;;5565106;25;19931;-75
2024/04/13 04:40:28;;;;;;;;;;;;;;;;;;5565532;25;19926;-74
2024/04/13 04:42:54;;;;;;;;;;;;;;;;;;5565429;25;19927;-75
2024/04/13 04:45:20;;;;;;;;;;;;;;;;;;5532288;25;19950;-75
2024/04/13 04:47:49;;;;;;;;;;;;;;;;;;5532390;25;19939;-75
2024/04/13 04:50:15;;;;;;;;;;;;;;;;;;5532305;25;19927;-75
2024/04/13 04:52:41;;;;;;;;;;;;;;;;;;5565194;25;19931;-75
2024/04/13 04:55:07;;;;;;;;;;;;;;;;;;5565522;25;20248;-75
2024/04/13 04:57:33;;;;;;;;;;;;;;;;;;5531465;25;19927;-74
2024/04/13 04:59:59;;;;;;;;;;;;;;;;;;5565396;25;19927;-74
2024/04/13 05:02:25;;;;;;;;;;;;;;;;;;5565369;25;19954;-75
2024/04/13 05:04:51;;;;;;;;;;;;;;;;;;5565435;25;19927;-76
2024/04/13 05:07:17;;;;;;;;;;;;;;;;;;5565660;25;19963;-76
2024/04/13 05:09:43;;;;;;;;;;;;;;;;;;5565324;25;20371;-75
2024/04/13 05:12:10;;;;;;;;;;;;;;;;;;5564716;25;20375;-76
2024/04/13 05:14:36;;;;;;;;;;;;;;;;;;5565043;25;20294;-75
2024/04/13 05:17:43;;;;;;;;;;;;;;;;;;5472683;26;19928;-74
2024/04/13 05:20:09;;;;;;;;;;;;;;;;;;5472541;26;19928;-74
2024/04/13 05:22:35;;;;;;;;;;;;;;;;;;5472894;26;19935;-73
2024/04/13 05:25:01;;;;;;;;;;;;;;;;;;5471168;26;19928;-74
2024/04/13 05:27:27;;;;;;;;;;;;;;;;;;5472352;26;19996;-73
2024/04/13 05:29:53;;;;;;;;;;;;;;;;;;5470918;26;19929;-73
2024/04/13 05:32:19;;;;;;;;;;;;;;;;;;5470815;26;20380;-74
2024/04/13 05:34:45;;;;;;;;;;;;;;;;;;5470600;26;19929;-74
2024/04/13 05:37:11;;;;;;;;;;;;;;;;;;5470865;26;19935;-75
2024/04/13 05:39:37;;;;;;;;;;;;;;;;;;5472365;26;19939;-75
2024/04/13 05:42:03;;;;;;;;;;;;;;;;;;5472745;26;19936;-75
2024/04/13 05:44:30;;;;;;;;;;;;;;;;;;5472691;26;19997;-75
2024/04/13 05:46:56;;;;;;;;;;;;;;;;;;5472052;26;19928;-75
2024/04/13 05:49:21;;;;;;;;;;;;;;;;;;5470694;26;19928;-75
2024/04/13 05:51:51;;;;;;;;;;;;;;;;;;5470783;26;19936;-75
2024/04/13 05:54:16;;;;;;;;;;;;;;;;;;5470148;26;19928;-75
2024/04/13 05:56:42;;;;;;;;;;;;;;;;;;5472380;26;20269;-75
2024/04/13 05:59:08;;;;;;;;;;;;;;;;;;5470528;26;19936;-74
2024/04/13 06:01:34;;;;;;;;;;;;;;;;;;5471985;26;19928;-74
2024/04/13 06:04:00;;;;;;;;;;;;;;;;;;5472359;26;19940;-74
2024/04/13 06:06:26;;;;;;;;;;;;;;;;;;5472365;26;20365;-76
2024/04/13 06:08:52;;;;;;;;;;;;;;;;;;5471616;26;19935;-74
2024/04/13 06:11:18;;;;;;;;;;;;;;;;;;5472329;26;19933;-75
2024/04/13 06:13:44;;;;;;;;;;;;;;;;;;5472127;26;20414;-74
2024/04/13 06:16:10;;;;;;;;;;;;;;;;;;5471682;26;19939;-75
2024/04/13 06:18:36;;;;;;;;;;;;;;;;;;5472342;26;19932;-74
2024/04/13 06:21:02;;;;;;;;;;;;;;;;;;5472467;26;19954;-75
2024/04/13 06:23:28;;;;;;;;;;;;;;;;;;5472152;26;19993;-74
2024/04/13 06:26:10;;;;;;;;;;;;;;;;;;5472784;26;20373;-74
2024/04/13 06:31:06;;;;;;;;;;;;;;;;;;5621977;25;20263;-73
2024/04/13 06:33:33;;;;;;;;;;;;;;;;;;5622807;25;20055;-74
2024/04/13 06:35:59;;;;;;;;;;;;;;;;;;5621938;25;20291;-75
2024/04/13 06:38:26;;;;;;;;;;;;;;;;;;5622466;25;19933;-74
2024/04/13 06:40:52;;;;;;;;;;;;;;;;;;5588750;25;19926;-74
2024/04/13 06:43:18;;;;;;;;;;;;;;;;;;5621802;25;19926;-75
2024/04/13 06:45:44;;;;;;;;;;;;;;;;;;5622372;25;19934;-76
2024/04/13 06:48:10;;;;;;;;;;;;;;;;;;5622262;25;19933;-76
2024/04/13 06:50:36;;;;;;;;;;;;;;;;;;5588361;25;19934;-76
2024/04/13 06:53:02;;;;;;;;;;;;;;;;;;5622479;25;19926;-77
2024/04/13 06:55:28;;;;;;;;;;;;;;;;;;5588609;25;19994;-76
2024/04/13 06:57:53;;;;;;;;;;;;;;;;;;5588010;25;19927;-76
2024/04/13 07:00:19;;;;;;;;;;;;;;;;;;5622250;25;19933;-75
2024/04/13 07:02:45;;;;;;;;;;;;;;;;;;5588496;25;19938;-75
2024/04/13 07:05:11;;;;;;;;;;;;;;;;;;5622005;25;19933;-75
2024/04/13 07:07:39;;;;;;;;;;;;;;;;;;5622121;25;19934;-75
2024/04/13 07:12:40;;;;;;;;;;;;;;;;;;5621545;25;19933;-76
2024/04/13 07:15:06;;;;;;;;;;;;;;;;;;5622519;25;19931;-75
2024/04/13 07:17:32;;;;;;;;;;;;;;;;;;5622471;25;20029;-76
2024/04/13 07:19:58;;;;;;;;;;;;;;;;;;5622110;25;19926;-77
2024/04/13 07:22:24;;;;;;;;;;;;;;;;;;5622597;25;19938;-75
2024/04/13 07:24:50;;;;;;;;;;;;;;;;;;5622502;25;19936;-75
2024/04/13 07:27:16;;;;;;;;;;;;;;;;;;5621828;25;19926;-75
2024/04/13 07:29:42;;;;;;;;;;;;;;;;;;5588662;25;19975;-75
2024/04/13 07:35:59;;;;;;;;;;;;;;;;;;5622464;25;20373;-78
2024/04/13 07:38:25;;;;;;;;;;;;;;;;;;5589320;25;19945;-75
2024/04/13 07:40:51;;;;;;;;;;;;;;;;;;5622030;25;19967;-76
2024/04/13 07:43:17;;;;;;;;;;;;;;;;;;5622609;25;19926;-75
2024/04/13 07:45:44;;;;;;;;;;;;;;;;;;5622360;25;19927;-77
2024/04/13 07:48:10;;;;;;;;;;;;;;;;;;5588018;25;19926;-77
2024/04/13 07:50:36;;;;;;;;;;;;;;;;;;5622411;25;19970;-76
2024/04/13 07:53:02;;;;;;;;;;;;;;;;;;5622261;25;19926;-76
2024/04/13 07:55:28;;;;;;;;;;;;;;;;;;5621885;25;19926;-77
2024/04/13 07:57:54;;;;;;;;;;;;;;;;;;5622261;25;19933;-75
2024/04/13 08:00:20;;;;;;;;;;;;;;;;;;5588058;25;19962;-74
2024/04/13 08:02:47;;;;;;;;;;;;;;;;;;5621932;25;20367;-75
2024/04/13 08:05:13;;;;;;;;;;;;;;;;;;5622100;25;20406;-75
2024/04/13 08:07:39;;;;;;;;;;;;;;;;;;5587912;25;19930;-75
2024/04/13 08:10:05;;;;;;;;;;;;;;;;;;5622137;25;19938;-76
2024/04/13 08:13:23;;;;;;;;;;;;;;;;;;5622935;25;19926;-75
2024/04/13 08:15:49;;;;;;;;;;;;;;;;;;5622478;25;19926;-75
2024/04/13 08:18:15;;;;;;;;;;;;;;;;;;5589120;25;19926;-76
2024/04/13 08:20:43;;;;;;;;;;;;;;;;;;5622813;25;19933;-75
2024/04/13 08:23:09;;;;;;;;;;;;;;;;;;5622187;25;19927;-76
2024/04/13 08:25:35;;;;;;;;;;;;;;;;;;5622688;25;19933;-74
2024/04/13 08:28:01;;;;;;;;;;;;;;;;;;5588976;25;19942;-74
2024/04/13 08:30:27;;;;;;;;;;;;;;;;;;5622156;25;20290;-74
2024/04/13 08:32:53;;;;;;;;;;;;;;;;;;5622490;25;20359;-75
2024/04/13 08:35:19;;;;;;;;;;;;;;;;;;5588697;25;19994;-75
2024/04/13 08:37:45;;;;;;;;;;;;;;;;;;5622038;25;19933;-75
2024/04/13 08:40:11;;;;;;;;;;;;;;;;;;5622522;25;19926;-76
2024/04/13 08:42:38;;;;;;;;;;;;;;;;;;5588069;25;19930;-76
2024/04/13 08:45:44;;;;;;;;;;;;;;;;;;5622105;25;20274;-74
2024/04/13 08:48:10;;;;;;;;;;;;;;;;;;5622496;25;19926;-75
2024/04/13 08:50:36;;;;;;;;;;;;;;;;;;5588361;25;19997;-75
2024/04/13 08:53:02;;;;;;;;;;;;;;;;;;5622422;25;19926;-75
2024/04/13 08:55:28;;;;;;;;;;;;;;;;;;5588624;25;19927;-74
2024/04/13 08:57:54;;;;;;;;;;;;;;;;;;5621892;25;19993;-75
2024/04/13 09:00:22;;;;;;;;;;;;;;;;;;5622369;25;20326;-74
2024/04/13 09:02:48;;;;;;;;;;;;;;;;;;5588595;25;19926;-74
2024/04/13 09:05:15;;;;;;;;;;;;;;;;;;5587837;25;19997;-74
2024/04/13 09:07:41;;;;;;;;;;;;;;;;;;5622192;25;20270;-75
2024/04/13 09:11:35;;;;;;;;;;;;;;;;;;5583415;25;19927;-75
2024/04/13 09:14:02;;;;;;;;;;;;;;;;;;5584220;25;20427;-74
2024/04/13 09:16:28;;;;;;;;;;;;;;;;;;5584317;25;20374;-74
2024/04/13 09:18:54;;;;;;;;;;;;;;;;;;5583818;25;19935;-74
2024/04/13 09:21:20;;;;;;;;;;;;;;;;;;5584065;25;19994;-74
2024/04/13 09:23:46;;;;;;;;;;;;;;;;;;5584149;25;20367;-74
2024/04/13 09:26:12;;;;;;;;;;;;;;;;;;5583722;25;19927;-74
2024/04/13 09:28:39;;;;;;;;;;;;;;;;;;5584078;25;19927;-73
2024/04/13 09:31:05;;;;;;;;;;;;;;;;;;5584021;25;20255;-73
2024/04/13 09:33:31;;;;;;;;;;;;;;;;;;5583531;25;19935;-74
2024/04/13 09:35:57;;;;;;;;;;;;;;;;;;5583905;25;19993;-74
2024/04/13 09:38:23;;;;;;;;;;;;;;;;;;5582062;25;19926;-74
2024/04/13 09:40:49;;;;;;;;;;;;;;;;;;5583575;25;19938;-74
2024/04/13 09:43:14;;;;;;;;;;;;;;;;;;5582106;25;19927;-74
2024/04/13 09:47:15;;;;;;;;;;;;;;;;;;5621677;25;20263;-74
2024/04/13 09:49:41;;;;;;;;;;;;;;;;;;5588804;25;19926;-74
2024/04/13 09:52:07;;;;;;;;;;;;;;;;;;5622398;25;19936;-74
2024/04/13 09:54:34;;;;;;;;;;;;;;;;;;5621721;25;19926;-74
2024/04/13 09:57:00;;;;;;;;;;;;;;;;;;5588585;25;19960;-75
2024/04/13 09:59:26;;;;;;;;;;;;;;;;;;5588739;25;19958;-74
2024/04/13 10:01:52;;;;;;;;;;;;;;;;;;5587855;25;19926;-76
2024/04/13 10:04:18;;;;;;;;;;;;;;;;;;5622693;25;19934;-75
2024/04/13 10:06:44;;;;;;;;;;;;;;;;;;5622235;25;20274;-74
2024/04/13 10:09:11;;;;;;;;;;;;;;;;;;5621745;25;19951;-75
2024/04/13 10:11:42;;;;;;;;;;;;;;;;;;5622050;25;19934;-75
2024/04/13 10:14:08;;;;;;;;;;;;;;;;;;5621643;25;19937;-75
2024/04/13 10:16:34;;;;;;;;;;;;;;;;;;5622133;25;19930;-75
2024/04/13 10:19:00;;;;;;;;;;;;;;;;;;5621937;25;19934;-75
2024/04/13 10:21:26;;;;;;;;;;;;;;;;;;5621666;25;19926;-75
2024/04/13 10:23:52;;;;;;;;;;;;;;;;;;5621844;25;20319;-75
2024/04/13 10:26:18;;;;;;;;;;;;;;;;;;5621934;25;19934;-74
2024/04/13 10:28:44;;;;;;;;;;;;;;;;;;5587679;25;19934;-75
2024/04/13 10:31:10;;;;;;;;;;;;;;;;;;5588175;25;19926;-75
2024/04/13 10:33:38;;;;;;;;;;;;;;;;;;5588183;25;19938;-76
2024/04/13 10:36:04;;;;;;;;;;;;;;;;;;5621383;25;19959;-76
2024/04/13 10:38:30;;;;;;;;;;;;;;;;;;5588172;25;19927;-76
2024/04/13 10:40:55;;;;;;;;;;;;;;;;;;5588104;25;19926;-76
2024/04/13 10:43:21;;;;;;;;;;;;;;;;;;5621352;25;20330;-76
2024/04/13 10:45:47;;;;;;;;;;;;;;;;;;5587688;25;19938;-76
2024/04/13 10:48:13;;;;;;;;;;;;;;;;;;5621857;25;19934;-76
2024/04/13 10:50:39;;;;;;;;;;;;;;;;;;5621625;25;20001;-76
2024/04/13 10:53:05;;;;;;;;;;;;;;;;;;5622133;25;19934;-75
2024/04/13 10:55:31;;;;;;;;;;;;;;;;;;5622029;25;20286;-76
2024/04/13 10:57:57;;;;;;;;;;;;;;;;;;5609105;25;19938;-76
2024/04/13 11:00:23;;;;;;;;;;;;;;;;;;5605382;25;19926;-75
2024/04/13 11:02:50;;;;;;;;;;;;;;;;;;5605301;25;19927;-75
2024/04/13 11:05:17;;;;;;;;;;;;;;;;;;5604936;25;20406;-76
2024/04/13 11:07:43;;;;;;;;;;;;;;;;;;5605318;25;19927;-76
2024/04/13 11:10:09;;;;;;;;;;;;;;;;;;5604834;25;19933;-76
2024/04/13 11:12:35;;;;;;;;;;;;;;;;;;5605283;25;19927;-75
2024/04/13 11:15:02;;;;;;;;;;;;;;;;;;5605149;25;19938;-75
2024/04/13 11:17:28;;;;;;;;;;;;;;;;;;5571227;25;20355;-75
2024/04/13 11:19:54;;;;;;;;;;;;;;;;;;5605038;25;19930;-76
2024/04/13 11:22:20;;;;;;;;;;;;;;;;;;5604912;25;19933;-75
2024/04/13 11:24:46;;;;;;;;;;;;;;;;;;5604407;25;19938;-75
2024/04/13 11:27:12;;;;;;;;;;;;;;;;;;5604713;25;19934;-75
2024/04/13 11:29:40;;;;;;;;;;;;;;;;;;5604652;25;19933;-75
2024/04/13 11:32:06;;;;;;;;;;;;;;;;;;5604315;25;20363;-75
2024/04/13 11:34:32;;;;;;;;;;;;;;;;;;5604971;25;19934;-76
2024/04/13 11:36:58;;;;;;;;;;;;;;;;;;5571086;25;19927;-75
2024/04/13 11:39:24;;;;;;;;;;;;;;;;;;5604315;25;19933;-75
2024/04/13 11:41:50;;;;;;;;;;;;;;;;;;5605019;25;19926;-75
2024/04/13 11:44:17;;;;;;;;;;;;;;;;;;5604667;25;19933;-76
2024/04/13 11:46:43;;;;;;;;;;;;;;;;;;5603772;25;19942;-76
2024/04/13 11:49:09;;;;;;;;;;;;;;;;;;5604378;25;19933;-76
2024/04/13 11:51:34;;;;;;;;;;;;;;;;;;5604265;25;19926;-77
2024/04/13 11:54:00;;;;;;;;;;;;;;;;;;5604012;25;19932;-77
2024/04/13 11:56:26;;;;;;;;;;;;;;;;;;5570659;25;19934;-75
2024/04/13 11:58:53;;;;;;;;;;;;;;;;;;5604041;25;19935;-75
2024/04/13 12:01:21;;;;;;;;;;;;;;;;;;5603491;25;20318;-75
2024/04/13 12:03:46;;;;;;;;;;;;;;;;;;5603952;25;19926;-76
2024/04/13 12:06:12;;;;;;;;;;;;;;;;;;5603927;25;19926;-76
2024/04/13 12:08:38;;;;;;;;;;;;;;;;;;5602061;25;19926;-76
2024/04/13 12:11:04;;;;;;;;;;;;;;;;;;5604187;25;19993;-76
2024/04/13 12:13:30;;;;;;;;;;;;;;;;;;5603757;25;20319;-76
2024/04/13 12:15:56;;;;;;;;;;;;;;;;;;5604132;25;19938;-76
2024/04/13 12:18:22;;;;;;;;;;;;;;;;;;5603810;25;20342;-75
2024/04/13 12:20:48;;;;;;;;;;;;;;;;;;5603688;25;20359;-76
2024/04/13 12:23:14;;;;;;;;;;;;;;;;;;5603927;25;19927;-75
2024/04/13 12:25:41;;;;;;;;;;;;;;;;;;5570180;25;20258;-74
2024/04/13 12:28:07;;;;;;;;;;;;;;;;;;5569799;25;19926;-75
2024/04/13 12:30:33;;;;;;;;;;;;;;;;;;5603646;25;19934;-75
2024/04/13 12:32:59;;;;;;;;;;;;;;;;;;5570173;25;19941;-75
2024/04/13 12:35:25;;;;;;;;;;;;;;;;;;5603279;25;19926;-76
2024/04/13 12:37:51;;;;;;;;;;;;;;;;;;5603587;25;19933;-75
2024/04/13 12:40:17;;;;;;;;;;;;;;;;;;5603792;25;19938;-76
2024/04/13 12:42:43;;;;;;;;;;;;;;;;;;5602961;25;19926;-75
2024/04/13 12:45:09;;;;;;;;;;;;;;;;;;5603135;25;19926;-76
2024/04/13 12:47:35;;;;;;;;;;;;;;;;;;5603698;25;19971;-75
2024/04/13 12:50:02;;;;;;;;;;;;;;;;;;5603562;25;20252;-76
2024/04/13 12:52:28;;;;;;;;;;;;;;;;;;5603641;25;19927;-75
2024/04/13 12:54:55;;;;;;;;;;;;;;;;;;5603611;25;19927;-75
2024/04/13 12:57:21;;;;;;;;;;;;;;;;;;5603002;25;19934;-75
2024/04/13 12:59:48;;;;;;;;;;;;;;;;;;5603617;25;19926;-74
2024/04/13 13:02:16;;;;;;;;;;;;;;;;;;5603525;25;19994;-74
2024/04/13 13:04:42;;;;;;;;;;;;;;;;;;5603128;25;19926;-74
2024/04/13 13:07:08;;;;;;;;;;;;;;;;;;5603366;25;19926;-77
2024/04/13 13:09:34;;;;;;;;;;;;;;;;;;5569992;25;19931;-76
2024/04/13 13:12:00;;;;;;;;;;;;;;;;;;5603157;25;19934;-76
2024/04/13 13:14:26;;;;;;;;;;;;;;;;;;5603585;25;19933;-75
2024/04/13 13:16:52;;;;;;;;;;;;;;;;;;5603063;25;19927;-75
2024/04/13 13:19:19;;;;;;;;;;;;;;;;;;5603205;25;19930;-76
2024/04/13 13:21:46;;;;;;;;;;;;;;;;;;5602811;25;19926;-76
2024/04/13 13:24:12;;;;;;;;;;;;;;;;;;5602675;25;19927;-76
2024/04/13 13:26:38;;;;;;;;;;;;;;;;;;5603139;25;20371;-75
2024/04/13 13:29:04;;;;;;;;;;;;;;;;;;5569639;25;19934;-75
2024/04/13 13:31:30;;;;;;;;;;;;;;;;;;5602734;25;19960;-75
2024/04/13 13:33:56;;;;;;;;;;;;;;;;;;5602928;25;19993;-75
2024/04/13 13:36:22;;;;;;;;;;;;;;;;;;5569694;25;19934;-76
2024/04/13 13:38:48;;;;;;;;;;;;;;;;;;5602408;25;19934;-76
2024/04/13 13:41:14;;;;;;;;;;;;;;;;;;5603095;25;19926;-77
2024/04/13 13:43:40;;;;;;;;;;;;;;;;;;5602906;25;19937;-75
2024/04/13 13:46:06;;;;;;;;;;;;;;;;;;5602278;25;19933;-75
2024/04/13 13:48:32;;;;;;;;;;;;;;;;;;5569331;25;19926;-76
2024/04/13 13:50:58;;;;;;;;;;;;;;;;;;5602667;25;19934;-77
2024/04/13 13:53:24;;;;;;;;;;;;;;;;;;5602269;25;19926;-76
2024/04/13 13:55:50;;;;;;;;;;;;;;;;;;5602598;25;19971;-76
2024/04/13 13:58:16;;;;;;;;;;;;;;;;;;5602680;25;19926;-76
2024/04/13 14:00:42;;;;;;;;;;;;;;;;;;5602129;25;20379;-75
2024/04/13 14:03:08;;;;;;;;;;;;;;;;;;5602510;25;19938;-74
2024/04/13 14:05:34;;;;;;;;;;;;;;;;;;5568734;25;19934;-75
2024/04/13 14:08:00;;;;;;;;;;;;;;;;;;5601966;25;19994;-74
2024/04/13 14:10:26;;;;;;;;;;;;;;;;;;5568769;25;19938;-75
2024/04/13 14:12:52;;;;;;;;;;;;;;;;;;5602164;25;19933;-76
2024/04/13 14:15:18;;;;;;;;;;;;;;;;;;5601257;25;19926;-75
2024/04/13 14:17:44;;;;;;;;;;;;;;;;;;5568302;25;19927;-75
2024/04/13 14:20:10;;;;;;;;;;;;;;;;;;5568118;25;19933;-75
2024/04/13 14:22:36;;;;;;;;;;;;;;;;;;5568410;25;20244;-75
2024/04/13 14:25:02;;;;;;;;;;;;;;;;;;5601883;25;20367;-75
2024/04/13 14:27:28;;;;;;;;;;;;;;;;;;5601389;25;20005;-74
2024/04/13 14:29:54;;;;;;;;;;;;;;;;;;5568366;25;19934;-74
2024/04/13 14:32:20;;;;;;;;;;;;;;;;;;5602894;25;19926;-74
2024/04/13 14:34:46;;;;;;;;;;;;;;;;;;5605287;25;19926;-73
2024/04/13 14:37:12;;;;;;;;;;;;;;;;;;5605627;25;19933;-74
2024/04/13 14:39:39;;;;;;;;;;;;;;;;;;5605839;25;20255;-75
2024/04/13 14:42:05;;;;;;;;;;;;;;;;;;5605119;25;19926;-75
2024/04/13 14:44:31;;;;;;;;;;;;;;;;;;5605749;25;20296;-74
2024/04/13 14:46:57;;;;;;;;;;;;;;;;;;5605182;25;19926;-74
2024/04/13 14:49:23;;;;;;;;;;;;;;;;;;5604963;25;20011;-75
2024/04/13 14:51:49;;;;;;;;;;;;;;;;;;5605507;25;19931;-76
2024/04/13 14:54:15;;;;;;;;;;;;;;;;;;5605359;25;19933;-76
2024/04/13 14:56:41;;;;;;;;;;;;;;;;;;5604738;25;19933;-75
2024/04/13 14:59:08;;;;;;;;;;;;;;;;;;5605239;25;20255;-74
2024/04/13 15:01:36;;;;;;;;;;;;;;;;;;5605179;25;19938;-75
2024/04/13 15:04:02;;;;;;;;;;;;;;;;;;5571395;25;19926;-75
2024/04/13 15:06:28;;;;;;;;;;;;;;;;;;5605337;25;19966;-74
2024/04/13 15:08:54;;;;;;;;;;;;;;;;;;5571766;25;19938;-75
2024/04/13 15:11:20;;;;;;;;;;;;;;;;;;5604903;25;19939;-74
2024/04/13 15:13:46;;;;;;;;;;;;;;;;;;5571763;25;20284;-74
2024/04/13 15:16:12;;;;;;;;;;;;;;;;;;5605191;25;19926;-74
2024/04/13 15:18:38;;;;;;;;;;;;;;;;;;5604659;25;19933;-76
2024/04/13 15:21:03;;;;;;;;;;;;;;;;;;5605087;25;19926;-74
2024/04/13 15:23:29;;;;;;;;;;;;;;;;;;5604602;25;19933;-75
2024/04/13 15:25:55;;;;;;;;;;;;;;;;;;5604906;25;19934;-75
2024/04/13 15:28:21;;;;;;;;;;;;;;;;;;5604804;25;19927;-75
2024/04/13 15:30:47;;;;;;;;;;;;;;;;;;5604425;25;19930;-74
2024/04/13 15:33:13;;;;;;;;;;;;;;;;;;5604890;25;19994;-74
2024/04/13 15:35:39;;;;;;;;;;;;;;;;;;5604919;25;19946;-74
2024/04/13 15:38:05;;;;;;;;;;;;;;;;;;5604312;25;19933;-75
2024/04/13 15:40:31;;;;;;;;;;;;;;;;;;5604933;25;19926;-75
2024/04/13 15:42:57;;;;;;;;;;;;;;;;;;5571224;25;19926;-75
2024/04/13 15:45:23;;;;;;;;;;;;;;;;;;5603883;25;19933;-74
2024/04/13 15:47:49;;;;;;;;;;;;;;;;;;5571425;25;19931;-74
2024/04/13 15:50:15;;;;;;;;;;;;;;;;;;5604698;25;20358;-76
2024/04/13 15:52:41;;;;;;;;;;;;;;;;;;5604197;25;20262;-74
2024/04/13 15:55:07;;;;;;;;;;;;;;;;;;5571109;25;19927;-75
2024/04/13 15:57:33;;;;;;;;;;;;;;;;;;5604560;25;20051;-75
2024/04/13 15:59:59;;;;;;;;;;;;;;;;;;5604135;25;19926;-75
2024/04/13 16:02:25;;;;;;;;;;;;;;;;;;5571014;25;19934;-74
2024/04/13 16:04:53;;;;;;;;;;;;;;;;;;5570737;25;19998;-74
2024/04/13 16:07:19;;;;;;;;;;;;;;;;;;5603934;25;20358;-75
2024/04/13 16:09:45;;;;;;;;;;;;;;;;;;5570813;25;19926;-75
2024/04/13 16:12:11;;;;;;;;;;;;;;;;;;5604385;25;20362;-75
2024/04/13 16:14:37;;;;;;;;;;;;;;;;;;5603903;25;20406;-75
2024/04/13 16:17:03;;;;;;;;;;;;;;;;;;5604300;25;20260;-75
2024/04/13 16:19:31;;;;;;;;;;;;;;;;;;5604293;25;19933;-75
2024/04/13 16:22:04;;;;;;;;;;;;;;;;;;5603956;25;19937;-74
2024/04/13 16:24:30;;;;;;;;;;;;;;;;;;5570796;25;19926;-74
2024/04/13 16:26:56;;;;;;;;;;;;;;;;;;5570129;25;19933;-74
2024/04/13 16:29:22;;;;;;;;;;;;;;;;;;5604074;25;19938;-74
2024/04/13 16:31:48;;;;;;;;;;;;;;;;;;5604059;25;19934;-74
2024/04/13 16:34:14;;;;;;;;;;;;;;;;;;5603584;25;19930;-76
2024/04/13 16:36:40;;;;;;;;;;;;;;;;;;5604184;25;19974;-74
2024/04/13 16:39:06;;;;;;;;;;;;;;;;;;5604023;25;19934;-74
2024/04/13 16:41:32;;;;;;;;;;;;;;;;;;5603506;25;19933;-74
2024/04/13 16:43:58;;;;;;;;;;;;;;;;;;5603874;25;19974;-75
2024/04/13 16:46:24;;;;;;;;;;;;;;;;;;5603363;25;19926;-75
2024/04/13 16:48:50;;;;;;;;;;;;;;;;;;5569592;25;20382;-75
2024/04/13 16:51:16;;;;;;;;;;;;;;;;;;5570137;25;19934;-75
2024/04/13 16:53:42;;;;;;;;;;;;;;;;;;5603563;25;19926;-76